createdAt,value
2017-11-26T00:00:00.384Z,772.76
2017-11-26T00:00:04.768Z,772.78
2017-11-26T00:00:08.826Z,772.8
2017-11-26T00:00:13.102Z,772.79
2017-11-26T00:00:17.254Z,772.8
2017-11-26T00:00:21.317Z,772.78
2017-11-26T00:00:25.584Z,772.82
2017-11-26T00:00:29.948Z,772.8
2017-11-26T00:00:34.195Z,772.75
2017-11-26T00:00:38.374Z,772.74
2017-11-26T00:00:42.518Z,772.83
2017-11-26T00:00:46.789Z,772.79
2017-11-26T00:00:51.100Z,772.79
2017-11-26T00:00:55.294Z,772.79
2017-11-26T00:00:59.231Z,772.81
2017-11-26T00:01:03.516Z,772.84
2017-11-26T00:01:07.798Z,772.84
2017-11-26T00:01:12.165Z,772.79
2017-11-26T00:01:16.440Z,772.81
2017-11-26T00:01:20.855Z,772.82
2017-11-26T00:01:25.255Z,772.8
2017-11-26T00:01:29.527Z,772.81
2017-11-26T00:01:33.805Z,772.83
2017-11-26T00:01:38.064Z,772.79
2017-11-26T00:01:42.234Z,772.82
2017-11-26T00:01:46.603Z,772.84
2017-11-26T00:01:50.853Z,772.84
2017-11-26T00:01:55.129Z,772.85
2017-11-26T00:01:59.399Z,772.85
2017-11-26T00:02:03.665Z,772.82
2017-11-26T00:02:07.816Z,772.83
2017-11-26T00:02:12.244Z,772.86
2017-11-26T00:02:16.613Z,772.81
2017-11-26T00:02:20.866Z,772.82
2017-11-26T00:02:24.929Z,772.81
2017-11-26T00:02:29.230Z,772.85
2017-11-26T00:02:33.494Z,772.84
2017-11-26T00:02:37.661Z,772.85
2017-11-26T00:02:41.928Z,772.87
2017-11-26T00:02:46.171Z,772.84
2017-11-26T00:02:50.446Z,772.85
2017-11-26T00:02:54.595Z,772.81
2017-11-26T00:02:58.858Z,772.85
2017-11-26T00:03:03.291Z,772.81
2017-11-26T00:03:07.571Z,772.84
2017-11-26T00:03:11.922Z,772.85
2017-11-26T00:03:16.271Z,772.85
2017-11-26T00:03:20.538Z,772.86
2017-11-26T00:03:24.939Z,772.85
2017-11-26T00:03:28.873Z,772.88
2017-11-26T00:03:33.238Z,772.87
2017-11-26T00:03:37.515Z,772.86
2017-11-26T00:03:41.560Z,772.86
2017-11-26T00:03:45.830Z,772.87
2017-11-26T00:03:50.000Z,772.87
2017-11-26T00:03:54.155Z,772.92
2017-11-26T00:03:58.297Z,772.91
2017-11-26T00:04:02.996Z,772.83
2017-11-26T00:04:07.306Z,772.87
2017-11-26T00:04:11.570Z,772.84
2017-11-26T00:04:15.628Z,772.85
2017-11-26T00:04:19.886Z,772.87
2017-11-26T00:04:24.266Z,772.84
2017-11-26T00:04:28.542Z,772.85
2017-11-26T00:04:32.727Z,772.85
2017-11-26T00:04:36.867Z,772.85
2017-11-26T00:04:41.136Z,772.86
2017-11-26T00:04:45.497Z,772.89
2017-11-26T00:04:49.890Z,772.83
2017-11-26T00:04:54.165Z,772.86
2017-11-26T00:04:58.238Z,772.86
2017-11-26T00:05:02.618Z,772.83
2017-11-26T00:05:06.881Z,772.82
2017-11-26T00:05:11.288Z,772.84
2017-11-26T00:05:15.559Z,772.83
2017-11-26T00:05:19.843Z,772.88
2017-11-26T00:05:23.900Z,772.83
2017-11-26T00:05:28.164Z,772.83
2017-11-26T00:05:32.428Z,772.85
2017-11-26T00:05:36.735Z,772.81
2017-11-26T00:05:41.001Z,772.8
2017-11-26T00:05:45.377Z,772.87
2017-11-26T00:05:49.561Z,772.86
2017-11-26T00:05:53.835Z,772.83
2017-11-26T00:05:58.123Z,772.84
2017-11-26T00:06:02.386Z,772.84
2017-11-26T00:06:06.668Z,772.81
2017-11-26T00:06:10.920Z,772.84
2017-11-26T00:06:15.216Z,772.84
2017-11-26T00:06:19.604Z,772.82
2017-11-26T00:06:23.528Z,772.81
2017-11-26T00:06:27.902Z,772.85
2017-11-26T00:06:32.163Z,772.82
2017-11-26T00:06:36.540Z,772.83
2017-11-26T00:06:40.916Z,772.88
2017-11-26T00:06:45.303Z,772.84
2017-11-26T00:06:49.567Z,772.83
2017-11-26T00:06:53.717Z,772.84
2017-11-26T00:06:57.903Z,772.8
2017-11-26T00:07:02.425Z,772.84
2017-11-26T00:07:06.593Z,772.83
2017-11-26T00:07:11.040Z,772.84
2017-11-26T00:07:15.409Z,772.83
2017-11-26T00:07:19.779Z,772.81
2017-11-26T00:07:23.949Z,772.83
2017-11-26T00:07:28.201Z,772.85
2017-11-26T00:07:32.567Z,772.86
2017-11-26T00:07:36.823Z,772.82
2017-11-26T00:07:41.196Z,772.84
2017-11-26T00:07:45.567Z,772.83
2017-11-26T00:07:49.974Z,772.83
2017-11-26T00:07:54.227Z,772.82
2017-11-26T00:07:58.396Z,772.87
2017-11-26T00:08:02.811Z,772.83
2017-11-26T00:08:06.979Z,772.86
2017-11-26T00:08:11.130Z,772.84
2017-11-26T00:08:15.385Z,772.86
2017-11-26T00:08:19.532Z,772.85
2017-11-26T00:08:23.682Z,772.85
2017-11-26T00:08:28.055Z,772.88
2017-11-26T00:08:32.335Z,772.86
2017-11-26T00:08:36.627Z,772.88
2017-11-26T00:08:40.889Z,772.86
2017-11-26T00:08:45.169Z,772.82
2017-11-26T00:08:49.451Z,772.87
2017-11-26T00:08:53.827Z,772.82
2017-11-26T00:08:58.015Z,772.88
2017-11-26T00:09:02.273Z,772.91
2017-11-26T00:09:06.546Z,772.88
2017-11-26T00:09:10.701Z,772.87
2017-11-26T00:09:15.110Z,772.84
2017-11-26T00:09:19.470Z,772.88
2017-11-26T00:09:23.745Z,772.87
2017-11-26T00:09:28.156Z,772.88
2017-11-26T00:09:32.205Z,772.9
2017-11-26T00:09:36.584Z,772.84
2017-11-26T00:09:40.979Z,772.93
2017-11-26T00:09:45.346Z,772.87
2017-11-26T00:09:49.496Z,772.88
2017-11-26T00:09:53.758Z,772.88
2017-11-26T00:09:58.019Z,772.86
2017-11-26T00:10:02.181Z,772.91
2017-11-26T00:10:06.337Z,772.9
2017-11-26T00:10:10.588Z,772.86
2017-11-26T00:10:14.956Z,772.89
2017-11-26T00:10:19.251Z,772.87
2017-11-26T00:10:23.612Z,772.9
2017-11-26T00:10:27.993Z,772.94
2017-11-26T00:10:32.374Z,772.85
2017-11-26T00:10:36.624Z,772.86
2017-11-26T00:10:41.005Z,772.91
2017-11-26T00:10:45.165Z,772.9
2017-11-26T00:10:49.425Z,772.91
2017-11-26T00:10:53.583Z,772.91
2017-11-26T00:10:57.735Z,772.93
2017-11-26T00:11:02.007Z,772.98
2017-11-26T00:11:06.171Z,772.92
2017-11-26T00:11:10.349Z,772.92
2017-11-26T00:11:14.601Z,772.94
2017-11-26T00:11:18.990Z,772.97
2017-11-26T00:11:23.280Z,772.94
2017-11-26T00:11:27.659Z,772.91
2017-11-26T00:11:31.912Z,772.95
2017-11-26T00:11:36.176Z,772.9
2017-11-26T00:11:40.563Z,772.9
2017-11-26T00:11:44.835Z,772.89
2017-11-26T00:11:49.101Z,772.94
2017-11-26T00:11:53.157Z,772.96
2017-11-26T00:11:57.190Z,772.97
2017-11-26T00:12:01.583Z,772.95
2017-11-26T00:12:05.522Z,772.9
2017-11-26T00:12:09.569Z,772.95
2017-11-26T00:12:13.963Z,773.05
2017-11-26T00:12:18.124Z,773.03
2017-11-26T00:12:22.391Z,772.97
2017-11-26T00:12:26.752Z,773.02
2017-11-26T00:12:31.139Z,773.01
2017-11-26T00:12:35.297Z,773.01
2017-11-26T00:12:39.680Z,773.02
2017-11-26T00:12:43.991Z,773.03
2017-11-26T00:12:48.373Z,773.04
2017-11-26T00:12:52.759Z,773.05
2017-11-26T00:12:57.145Z,773.04
2017-11-26T00:13:01.389Z,773.01
2017-11-26T00:13:05.542Z,773.04
2017-11-26T00:13:09.687Z,773.03
2017-11-26T00:13:13.981Z,773.01
2017-11-26T00:13:18.250Z,773.07
2017-11-26T00:13:22.302Z,773.06
2017-11-26T00:13:26.668Z,773.04
2017-11-26T00:13:30.923Z,773.07
2017-11-26T00:13:34.968Z,773.09
2017-11-26T00:13:39.353Z,773.09
2017-11-26T00:13:43.718Z,773.08
2017-11-26T00:13:47.987Z,773.03
2017-11-26T00:13:52.269Z,773.08
2017-11-26T00:13:56.641Z,773.05
2017-11-26T00:14:00.905Z,773.11
2017-11-26T00:14:05.186Z,773.1
2017-11-26T00:14:09.343Z,773.11
2017-11-26T00:14:13.479Z,773.15
2017-11-26T00:14:17.635Z,773.13
2017-11-26T00:14:21.894Z,773.17
2017-11-26T00:14:26.066Z,773.11
2017-11-26T00:14:30.378Z,773.1
2017-11-26T00:14:34.428Z,773.06
2017-11-26T00:14:38.784Z,773.08
2017-11-26T00:14:43.053Z,773.14
2017-11-26T00:14:47.213Z,773.14
2017-11-26T00:14:51.372Z,773.12
2017-11-26T00:14:55.747Z,773.18
2017-11-26T00:15:00.115Z,773.2
2017-11-26T00:15:04.500Z,773.18
2017-11-26T00:15:08.552Z,773.2
2017-11-26T00:15:12.920Z,773.23
2017-11-26T00:15:17.284Z,773.23
2017-11-26T00:15:21.453Z,773.26
2017-11-26T00:15:25.718Z,773.23
2017-11-26T00:15:29.981Z,773.25
2017-11-26T00:15:34.250Z,773.25
2017-11-26T00:15:38.651Z,773.24
2017-11-26T00:15:43.015Z,773.24
2017-11-26T00:15:47.440Z,773.26
2017-11-26T00:15:51.858Z,773.24
2017-11-26T00:15:56.221Z,773.25
2017-11-26T00:16:00.597Z,773.25
2017-11-26T00:16:04.733Z,773.29
2017-11-26T00:16:08.891Z,773.26
2017-11-26T00:16:13.254Z,773.27
2017-11-26T00:16:17.538Z,773.28
2017-11-26T00:16:21.821Z,773.3
2017-11-26T00:16:26.199Z,773.3
2017-11-26T00:16:30.376Z,773.32
2017-11-26T00:16:34.774Z,773.27
2017-11-26T00:16:39.133Z,773.33
2017-11-26T00:16:43.387Z,773.33
2017-11-26T00:16:47.789Z,773.36
2017-11-26T00:16:52.068Z,773.34
2017-11-26T00:16:56.433Z,773.36
2017-11-26T00:17:00.701Z,773.33
2017-11-26T00:17:05.067Z,773.31
2017-11-26T00:17:09.112Z,773.35
2017-11-26T00:17:13.364Z,773.33
2017-11-26T00:17:17.639Z,773.32
2017-11-26T00:17:22.011Z,773.35
2017-11-26T00:17:26.279Z,773.32
2017-11-26T00:17:30.446Z,773.35
2017-11-26T00:17:34.845Z,773.38
2017-11-26T00:17:39.094Z,773.32
2017-11-26T00:17:43.265Z,773.32
2017-11-26T00:17:47.523Z,773.33
2017-11-26T00:17:51.886Z,773.36
2017-11-26T00:17:56.280Z,773.36
2017-11-26T00:18:00.656Z,773.34
2017-11-26T00:18:04.804Z,773.35
2017-11-26T00:18:08.982Z,773.36
2017-11-26T00:18:13.249Z,773.35
2017-11-26T00:18:17.515Z,773.35
2017-11-26T00:18:21.787Z,773.35
2017-11-26T00:18:25.838Z,773.34
2017-11-26T00:18:30.094Z,773.35
2017-11-26T00:18:34.367Z,773.3
2017-11-26T00:18:38.756Z,773.3
2017-11-26T00:18:42.931Z,773.31
2017-11-26T00:18:47.191Z,773.36
2017-11-26T00:18:51.472Z,773.36
2017-11-26T00:18:55.743Z,773.35
2017-11-26T00:18:59.894Z,773.35
2017-11-26T00:19:04.156Z,773.33
2017-11-26T00:19:08.544Z,773.34
2017-11-26T00:19:12.918Z,773.27
2017-11-26T00:19:17.304Z,773.29
2017-11-26T00:19:21.557Z,773.31
2017-11-26T00:19:25.815Z,773.34
2017-11-26T00:19:30.090Z,773.32
2017-11-26T00:19:34.369Z,773.35
2017-11-26T00:19:38.730Z,773.32
2017-11-26T00:19:42.883Z,773.35
2017-11-26T00:19:47.161Z,773.36
2017-11-26T00:19:51.423Z,773.32
2017-11-26T00:19:55.716Z,773.32
2017-11-26T00:19:59.988Z,773.34
2017-11-26T00:20:04.154Z,773.35
2017-11-26T00:20:08.304Z,773.34
2017-11-26T00:20:12.469Z,773.34
2017-11-26T00:20:16.743Z,773.34
2017-11-26T00:20:21.023Z,773.33
2017-11-26T00:20:25.174Z,773.32
2017-11-26T00:20:29.437Z,773.32
2017-11-26T00:20:33.719Z,773.29
2017-11-26T00:20:38.028Z,773.3
2017-11-26T00:20:42.394Z,773.29
2017-11-26T00:20:46.653Z,773.25
2017-11-26T00:20:50.913Z,773.27
2017-11-26T00:20:55.075Z,773.25
2017-11-26T00:20:59.245Z,773.27
2017-11-26T00:21:03.655Z,773.28
2017-11-26T00:21:07.811Z,773.28
2017-11-26T00:21:12.194Z,773.29
2017-11-26T00:21:16.461Z,773.3
2017-11-26T00:21:20.723Z,773.27
2017-11-26T00:21:24.980Z,773.26
2017-11-26T00:21:29.384Z,773.26
2017-11-26T00:21:33.651Z,773.27
2017-11-26T00:21:38.029Z,773.25
2017-11-26T00:21:42.179Z,773.23
2017-11-26T00:21:46.336Z,773.22
2017-11-26T00:21:50.715Z,773.21
2017-11-26T00:21:54.996Z,773.22
2017-11-26T00:21:59.254Z,773.24
2017-11-26T00:22:03.649Z,773.24
2017-11-26T00:22:07.678Z,773.24
2017-11-26T00:22:11.950Z,773.24
2017-11-26T00:22:16.202Z,773.2
2017-11-26T00:22:20.496Z,773.19
2017-11-26T00:22:24.765Z,773.2
2017-11-26T00:22:28.942Z,773.19
2017-11-26T00:22:33.228Z,773.19
2017-11-26T00:22:37.594Z,773.21
2017-11-26T00:22:41.748Z,773.12
2017-11-26T00:22:46.027Z,773.15
2017-11-26T00:22:50.296Z,773.16
2017-11-26T00:22:54.660Z,773.13
2017-11-26T00:22:59.054Z,773.12
2017-11-26T00:23:03.426Z,773.14
2017-11-26T00:23:07.806Z,773.1
2017-11-26T00:23:11.859Z,773.11
2017-11-26T00:23:16.146Z,773.12
2017-11-26T00:23:20.515Z,773.14
2017-11-26T00:23:24.675Z,773.1
2017-11-26T00:23:28.940Z,773.09
2017-11-26T00:23:33.338Z,773.09
2017-11-26T00:23:37.722Z,773.12
2017-11-26T00:23:41.880Z,773.13
2017-11-26T00:23:46.257Z,773.07
2017-11-26T00:23:50.632Z,773.08
2017-11-26T00:23:54.886Z,773.03
2017-11-26T00:23:59.273Z,773.15
2017-11-26T00:24:03.536Z,773.12
2017-11-26T00:24:07.563Z,773.1
2017-11-26T00:24:11.726Z,773.09
2017-11-26T00:24:16.087Z,773.11
2017-11-26T00:24:20.337Z,773.07
2017-11-26T00:24:24.370Z,773.09
2017-11-26T00:24:28.533Z,773.06
2017-11-26T00:24:32.686Z,773.04
2017-11-26T00:24:37.037Z,773.09
2017-11-26T00:24:41.449Z,773.11
2017-11-26T00:24:45.605Z,773.1
2017-11-26T00:24:49.773Z,773.07
2017-11-26T00:24:53.939Z,773.02
2017-11-26T00:24:58.321Z,773.08
2017-11-26T00:25:02.530Z,773.09
2017-11-26T00:25:06.830Z,773.04
2017-11-26T00:25:11.196Z,773.11
2017-11-26T00:25:15.586Z,773.09
2017-11-26T00:25:19.635Z,773.04
2017-11-26T00:25:23.782Z,773.07
2017-11-26T00:25:28.174Z,773.05
2017-11-26T00:25:32.552Z,773.08
2017-11-26T00:25:36.816Z,773.05
2017-11-26T00:25:40.957Z,773.04
2017-11-26T00:25:45.004Z,773.01
2017-11-26T00:25:49.272Z,773.06
2017-11-26T00:25:53.645Z,773.08
2017-11-26T00:25:58.021Z,773.07
2017-11-26T00:26:02.371Z,773.07
2017-11-26T00:26:06.403Z,773.06
2017-11-26T00:26:10.790Z,773.03
2017-11-26T00:26:15.203Z,773.06
2017-11-26T00:26:19.465Z,773.06
2017-11-26T00:26:23.833Z,773.02
2017-11-26T00:26:28.137Z,773.02
2017-11-26T00:26:32.281Z,773.08
2017-11-26T00:26:36.546Z,773.05
2017-11-26T00:26:40.823Z,773.03
2017-11-26T00:26:45.193Z,773.09
2017-11-26T00:26:49.482Z,773.04
2017-11-26T00:26:53.905Z,773.03
2017-11-26T00:26:58.266Z,773.06
2017-11-26T00:27:02.421Z,773.05
2017-11-26T00:27:06.580Z,773.04
2017-11-26T00:27:10.966Z,773.02
2017-11-26T00:27:15.230Z,773.05
2017-11-26T00:27:19.504Z,772.99
2017-11-26T00:27:23.904Z,772.99
2017-11-26T00:27:28.055Z,772.99
2017-11-26T00:27:32.318Z,773
2017-11-26T00:27:36.525Z,773.02
2017-11-26T00:27:40.778Z,773.1
2017-11-26T00:27:45.039Z,773.08
2017-11-26T00:27:49.216Z,772.97
2017-11-26T00:27:53.497Z,773
2017-11-26T00:27:57.666Z,773
2017-11-26T00:28:02.250Z,773.02
2017-11-26T00:28:06.409Z,773.03
2017-11-26T00:28:10.351Z,773.01
2017-11-26T00:28:14.758Z,773
2017-11-26T00:28:19.021Z,773.02
2017-11-26T00:28:23.284Z,773.02
2017-11-26T00:28:27.562Z,773.03
2017-11-26T00:28:31.837Z,773.03
2017-11-26T00:28:35.881Z,773.05
2017-11-26T00:28:40.258Z,773.02
2017-11-26T00:28:44.425Z,773.02
2017-11-26T00:28:48.806Z,772.99
2017-11-26T00:28:53.193Z,773.08
2017-11-26T00:28:57.592Z,773.08
2017-11-26T00:29:01.857Z,773.08
2017-11-26T00:29:06.218Z,773.07
2017-11-26T00:29:10.494Z,773.12
2017-11-26T00:29:16.509Z,773.07
2017-11-26T00:29:20.949Z,773.1
2017-11-26T00:29:25.516Z,773.07
2017-11-26T00:29:29.776Z,773.09
2017-11-26T00:29:34.087Z,773.09
2017-11-26T00:29:38.465Z,773.11
2017-11-26T00:29:42.728Z,773.08
2017-11-26T00:29:46.966Z,773.09
2017-11-26T00:29:51.259Z,773.11
2017-11-26T00:29:55.642Z,773.08
2017-11-26T00:30:00.036Z,773.1
2017-11-26T00:30:04.311Z,773.07
2017-11-26T00:30:08.586Z,773.04
2017-11-26T00:30:12.725Z,773.07
2017-11-26T00:30:17.113Z,773.03
2017-11-26T00:30:21.386Z,773.11
2017-11-26T00:30:25.529Z,773.05
2017-11-26T00:30:29.892Z,773.13
2017-11-26T00:30:34.287Z,773.1
2017-11-26T00:30:38.659Z,773.09
2017-11-26T00:30:43.039Z,773.07
2017-11-26T00:30:47.323Z,773.03
2017-11-26T00:30:51.592Z,773.05
2017-11-26T00:30:55.763Z,773.07
2017-11-26T00:30:59.798Z,773.04
2017-11-26T00:31:04.098Z,773
2017-11-26T00:31:08.371Z,773.12
2017-11-26T00:31:12.761Z,773.14
2017-11-26T00:31:17.144Z,773.11
2017-11-26T00:31:21.418Z,773.08
2017-11-26T00:31:25.795Z,773.08
2017-11-26T00:31:30.047Z,773.11
2017-11-26T00:31:34.421Z,773.1
2017-11-26T00:31:38.824Z,773.13
2017-11-26T00:31:43.100Z,773.1
2017-11-26T00:31:47.144Z,773.13
2017-11-26T00:31:51.391Z,773.16
2017-11-26T00:31:55.756Z,773.13
2017-11-26T00:31:59.788Z,773.15
2017-11-26T00:32:04.174Z,773.12
2017-11-26T00:32:08.217Z,773.15
2017-11-26T00:32:12.614Z,773.13
2017-11-26T00:32:17.016Z,773.13
2017-11-26T00:32:21.398Z,773.12
2017-11-26T00:32:25.769Z,773.1
2017-11-26T00:32:30.150Z,773.12
2017-11-26T00:32:34.307Z,773.14
2017-11-26T00:32:38.565Z,773.11
2017-11-26T00:32:42.728Z,773.11
2017-11-26T00:32:47.092Z,773.1
2017-11-26T00:32:51.460Z,773.14
2017-11-26T00:32:55.876Z,773.15
2017-11-26T00:33:00.135Z,773.13
2017-11-26T00:33:04.700Z,773.12
2017-11-26T00:33:08.951Z,773.13
2017-11-26T00:33:13.365Z,773.13
2017-11-26T00:33:17.751Z,773.14
2017-11-26T00:33:22.132Z,773.11
2017-11-26T00:33:26.524Z,773.11
2017-11-26T00:33:30.799Z,773.13
2017-11-26T00:33:35.066Z,773.16
2017-11-26T00:33:39.112Z,773.09
2017-11-26T00:33:43.384Z,773.13
2017-11-26T00:33:47.762Z,773.14
2017-11-26T00:33:51.929Z,773.12
2017-11-26T00:33:56.320Z,773.1
2017-11-26T00:34:00.578Z,773.12
2017-11-26T00:34:04.971Z,773.09
2017-11-26T00:34:09.009Z,773.13
2017-11-26T00:34:13.055Z,773.12
2017-11-26T00:34:17.429Z,773.12
2017-11-26T00:34:21.818Z,773.09
2017-11-26T00:34:25.959Z,773.12
2017-11-26T00:34:30.107Z,773.1
2017-11-26T00:34:34.385Z,773.1
2017-11-26T00:34:38.647Z,773.09
2017-11-26T00:34:43.035Z,773.09
2017-11-26T00:34:47.314Z,773.05
2017-11-26T00:34:51.376Z,773.12
2017-11-26T00:34:55.779Z,773.12
2017-11-26T00:35:00.050Z,773.12
2017-11-26T00:35:04.409Z,773.08
2017-11-26T00:35:08.684Z,773.1
2017-11-26T00:35:13.060Z,773.11
2017-11-26T00:35:17.445Z,773.08
2017-11-26T00:35:21.810Z,773.1
2017-11-26T00:35:26.225Z,773.12
2017-11-26T00:35:30.505Z,773.06
2017-11-26T00:35:34.547Z,773.09
2017-11-26T00:35:38.931Z,773.06
2017-11-26T00:35:43.339Z,773.1
2017-11-26T00:35:47.704Z,773.03
2017-11-26T00:35:52.047Z,773.07
2017-11-26T00:35:56.218Z,773.13
2017-11-26T00:36:00.468Z,773.12
2017-11-26T00:36:04.639Z,773.11
2017-11-26T00:36:09.014Z,773.11
2017-11-26T00:36:13.383Z,773.14
2017-11-26T00:36:17.753Z,773.12
2017-11-26T00:36:22.031Z,773.1
2017-11-26T00:36:26.407Z,773.12
2017-11-26T00:36:30.681Z,773.12
2017-11-26T00:36:34.830Z,773.13
2017-11-26T00:36:39.111Z,773.11
2017-11-26T00:36:43.256Z,773.1
2017-11-26T00:36:47.636Z,773.05
2017-11-26T00:36:51.914Z,773.07
2017-11-26T00:36:56.176Z,773.11
2017-11-26T00:37:00.210Z,773.08
2017-11-26T00:37:04.600Z,773.04
2017-11-26T00:37:08.773Z,773.1
2017-11-26T00:37:13.151Z,773.1
2017-11-26T00:37:17.416Z,773.12
2017-11-26T00:37:21.813Z,773.1
2017-11-26T00:37:26.076Z,773.07
2017-11-26T00:37:30.459Z,773.06
2017-11-26T00:37:34.737Z,773.12
2017-11-26T00:37:39.009Z,773.1
2017-11-26T00:37:43.277Z,773.13
2017-11-26T00:37:47.555Z,773.08
2017-11-26T00:37:51.792Z,773.13
2017-11-26T00:37:56.068Z,773.07
2017-11-26T00:38:00.261Z,773.14
2017-11-26T00:38:04.793Z,773.12
2017-11-26T00:38:09.058Z,773.12
2017-11-26T00:38:13.338Z,773.06
2017-11-26T00:38:17.615Z,773.1
2017-11-26T00:38:21.765Z,773.1
2017-11-26T00:38:26.039Z,773.14
2017-11-26T00:38:30.421Z,773.14
2017-11-26T00:38:34.796Z,773.14
2017-11-26T00:38:39.067Z,773.12
2017-11-26T00:38:43.110Z,773.14
2017-11-26T00:38:47.382Z,773.13
2017-11-26T00:38:51.658Z,773.12
2017-11-26T00:38:55.932Z,773.12
2017-11-26T00:39:00.303Z,773.12
2017-11-26T00:39:04.679Z,773.14
2017-11-26T00:39:08.957Z,773.12
2017-11-26T00:39:13.362Z,773.13
2017-11-26T00:39:17.403Z,773.11
2017-11-26T00:39:21.660Z,773.14
2017-11-26T00:39:25.691Z,773.08
2017-11-26T00:39:30.072Z,773.16
2017-11-26T00:39:34.341Z,773.08
2017-11-26T00:39:38.617Z,773.12
2017-11-26T00:39:42.997Z,773.14
2017-11-26T00:39:47.274Z,773.13
2017-11-26T00:39:51.575Z,773.15
2017-11-26T00:39:55.947Z,773.15
2017-11-26T00:40:00.230Z,773.17
2017-11-26T00:40:04.616Z,773.13
2017-11-26T00:40:08.885Z,773.09
2017-11-26T00:40:13.066Z,773.12
2017-11-26T00:40:17.343Z,773.11
2017-11-26T00:40:21.609Z,773.12
2017-11-26T00:40:25.994Z,773.07
2017-11-26T00:40:30.263Z,773.11
2017-11-26T00:40:34.522Z,773.1
2017-11-26T00:40:38.690Z,773.13
2017-11-26T00:40:42.873Z,773.15
2017-11-26T00:40:47.250Z,773.09
2017-11-26T00:40:51.639Z,773.14
2017-11-26T00:40:56.012Z,773.14
2017-11-26T00:41:00.290Z,773.11
2017-11-26T00:41:04.562Z,773.12
2017-11-26T00:41:08.832Z,773.11
2017-11-26T00:41:13.208Z,773.1
2017-11-26T00:41:17.598Z,773.09
2017-11-26T00:41:21.967Z,773.09
2017-11-26T00:41:26.235Z,773.09
2017-11-26T00:41:30.627Z,773.09
2017-11-26T00:41:34.877Z,773.07
2017-11-26T00:41:39.028Z,773.08
2017-11-26T00:41:43.426Z,773.02
2017-11-26T00:41:47.583Z,773.03
2017-11-26T00:41:51.731Z,773.11
2017-11-26T00:41:55.811Z,773.08
2017-11-26T00:42:00.173Z,773.09
2017-11-26T00:42:04.688Z,773.01
2017-11-26T00:42:08.949Z,773.07
2017-11-26T00:42:13.268Z,773.06
2017-11-26T00:42:17.516Z,773.03
2017-11-26T00:42:21.894Z,772.97
2017-11-26T00:42:26.162Z,773.01
2017-11-26T00:42:30.528Z,773.01
2017-11-26T00:42:34.801Z,772.99
2017-11-26T00:42:39.097Z,773
2017-11-26T00:42:43.349Z,772.98
2017-11-26T00:42:47.725Z,772.93
2017-11-26T00:42:52.005Z,773
2017-11-26T00:42:56.139Z,773.05
2017-11-26T00:43:00.525Z,773.08
2017-11-26T00:43:04.823Z,773.07
2017-11-26T00:43:09.192Z,773.05
2017-11-26T00:43:13.451Z,773.05
2017-11-26T00:43:17.836Z,773.04
2017-11-26T00:43:22.211Z,773
2017-11-26T00:43:26.469Z,773.02
2017-11-26T00:43:30.832Z,773.01
2017-11-26T00:43:35.193Z,773
2017-11-26T00:43:39.328Z,773.02
2017-11-26T00:43:43.715Z,773
2017-11-26T00:43:47.866Z,773
2017-11-26T00:43:52.152Z,773.04
2017-11-26T00:43:56.429Z,773.03
2017-11-26T00:44:00.688Z,773.01
2017-11-26T00:44:05.078Z,773.02
2017-11-26T00:44:09.344Z,773.02
2017-11-26T00:44:13.481Z,772.99
2017-11-26T00:44:17.862Z,773.05
2017-11-26T00:44:22.012Z,773.04
2017-11-26T00:44:26.259Z,773.04
2017-11-26T00:44:30.517Z,773.04
2017-11-26T00:44:34.991Z,773.01
2017-11-26T00:44:39.142Z,773.02
2017-11-26T00:44:43.294Z,773.04
2017-11-26T00:44:47.574Z,773.06
2017-11-26T00:44:51.838Z,773.03
2017-11-26T00:44:55.992Z,773.02
2017-11-26T00:45:00.254Z,773.01
2017-11-26T00:45:04.511Z,772.98
2017-11-26T00:45:08.901Z,773.04
2017-11-26T00:45:13.327Z,773
2017-11-26T00:45:17.701Z,773.04
2017-11-26T00:45:22.076Z,773.03
2017-11-26T00:45:26.496Z,773.01
2017-11-26T00:45:30.630Z,773.02
2017-11-26T00:45:34.895Z,772.97
2017-11-26T00:45:39.169Z,772.99
2017-11-26T00:45:43.423Z,773.01
2017-11-26T00:45:47.462Z,772.97
2017-11-26T00:45:51.739Z,773.03
2017-11-26T00:45:56.130Z,773.02
2017-11-26T00:46:00.327Z,773.01
2017-11-26T00:46:04.892Z,773.04
2017-11-26T00:46:09.040Z,773.01
2017-11-26T00:46:13.405Z,772.99
2017-11-26T00:46:17.669Z,772.99
2017-11-26T00:46:22.067Z,773.02
2017-11-26T00:46:26.343Z,772.98
2017-11-26T00:46:30.722Z,773.01
2017-11-26T00:46:34.885Z,772.98
2017-11-26T00:46:39.024Z,773.01
2017-11-26T00:46:43.300Z,772.99
2017-11-26T00:46:47.591Z,772.97
2017-11-26T00:46:51.850Z,772.98
2017-11-26T00:46:56.116Z,772.91
2017-11-26T00:47:00.503Z,772.95
2017-11-26T00:47:05.090Z,772.92
2017-11-26T00:47:09.241Z,772.93
2017-11-26T00:47:13.625Z,772.93
2017-11-26T00:47:18.014Z,772.92
2017-11-26T00:47:22.260Z,772.94
2017-11-26T00:47:26.440Z,772.99
2017-11-26T00:47:30.748Z,773
2017-11-26T00:47:35.141Z,772.98
2017-11-26T00:47:39.542Z,772.93
2017-11-26T00:47:43.717Z,772.93
2017-11-26T00:47:47.981Z,772.93
2017-11-26T00:47:52.146Z,772.94
2017-11-26T00:47:56.524Z,772.91
2017-11-26T00:48:00.886Z,772.99
2017-11-26T00:48:05.364Z,772.97
2017-11-26T00:48:09.523Z,773
2017-11-26T00:48:13.812Z,772.97
2017-11-26T00:48:17.977Z,772.94
2017-11-26T00:48:22.263Z,772.96
2017-11-26T00:48:26.524Z,772.96
2017-11-26T00:48:30.888Z,772.96
2017-11-26T00:48:35.146Z,772.98
2017-11-26T00:48:39.518Z,772.97
2017-11-26T00:48:43.684Z,772.98
2017-11-26T00:48:47.844Z,772.95
2017-11-26T00:48:52.105Z,772.93
2017-11-26T00:48:56.373Z,772.93
2017-11-26T00:49:00.751Z,772.9
2017-11-26T00:49:05.062Z,772.95
2017-11-26T00:49:09.433Z,772.88
2017-11-26T00:49:13.705Z,772.94
2017-11-26T00:49:17.962Z,772.91
2017-11-26T00:49:22.222Z,772.92
2017-11-26T00:49:26.503Z,772.94
2017-11-26T00:49:30.894Z,772.95
2017-11-26T00:49:35.261Z,772.96
2017-11-26T00:49:39.527Z,772.92
2017-11-26T00:49:43.909Z,772.93
2017-11-26T00:49:48.183Z,772.94
2017-11-26T00:49:52.559Z,772.98
2017-11-26T00:49:56.700Z,772.94
2017-11-26T00:50:00.968Z,772.94
2017-11-26T00:50:05.337Z,772.93
2017-11-26T00:50:09.532Z,772.94
2017-11-26T00:50:13.810Z,772.98
2017-11-26T00:50:18.190Z,772.91
2017-11-26T00:50:22.574Z,772.86
2017-11-26T00:50:26.837Z,772.91
2017-11-26T00:50:30.988Z,772.89
2017-11-26T00:50:35.261Z,772.95
2017-11-26T00:50:39.640Z,772.96
2017-11-26T00:50:43.993Z,772.91
2017-11-26T00:50:48.242Z,772.97
2017-11-26T00:50:52.641Z,772.95
2017-11-26T00:50:56.920Z,772.91
2017-11-26T00:51:01.170Z,772.92
2017-11-26T00:51:05.307Z,772.91
2017-11-26T00:51:09.577Z,772.91
2017-11-26T00:51:13.817Z,772.91
2017-11-26T00:51:18.203Z,772.96
2017-11-26T00:51:22.478Z,772.98
2017-11-26T00:51:26.837Z,772.97
2017-11-26T00:51:31.101Z,772.95
2017-11-26T00:51:35.376Z,772.92
2017-11-26T00:51:39.787Z,772.93
2017-11-26T00:51:43.944Z,772.97
2017-11-26T00:51:48.125Z,772.98
2017-11-26T00:51:52.508Z,773.02
2017-11-26T00:51:56.885Z,773.01
2017-11-26T00:52:01.272Z,773.01
2017-11-26T00:52:05.906Z,772.99
2017-11-26T00:52:10.279Z,772.97
2017-11-26T00:52:14.554Z,772.96
2017-11-26T00:52:18.939Z,772.96
2017-11-26T00:52:23.323Z,773.02
2017-11-26T00:52:27.692Z,772.98
2017-11-26T00:52:31.972Z,772.95
2017-11-26T00:52:36.341Z,773
2017-11-26T00:52:40.490Z,772.99
2017-11-26T00:52:44.644Z,773.01
2017-11-26T00:52:48.926Z,773
2017-11-26T00:52:53.305Z,772.98
2017-11-26T00:52:57.459Z,773.04
2017-11-26T00:53:01.988Z,773.02
2017-11-26T00:53:06.146Z,773.01
2017-11-26T00:53:10.512Z,772.99
2017-11-26T00:53:14.792Z,773.01
2017-11-26T00:53:19.211Z,773.03
2017-11-26T00:53:23.484Z,773
2017-11-26T00:53:27.747Z,773.01
2017-11-26T00:53:32.178Z,773.01
2017-11-26T00:53:36.439Z,773